Time;durP1;ratioP1;P1;durP2;ratioP2;P2;SDS_P1;SDS_P2;PMS_P1;PMS_P2;Temp;Humidity;BMP_temperature;BMP_pressure;BME280_temperature;BME280_humidity;BME280_pressure;Samples;Min_cycle;Max_cycle;Signal;HPM_P1;HPM_P2
2022/04/26 03:36:15;;;;;;;;;;;;;;;25.90;15.06;99597.28;5016111;28;19920;-78
2022/04/26 03:38:47;;;;;;;;;;;;;;;25.94;15.12;99603.78;5016336;28;20082;-78
2022/04/26 03:41:12;;;;;;;;;;;;;;;25.97;15.02;99611.38;5016067;28;20368;-78
2022/04/26 03:43:37;;;;;;;;;;;;;;;25.99;15.20;99622.00;5015935;28;19921;-78
2022/04/26 03:46:03;;;;;;;;;;;;;;;25.99;15.05;99622.84;5016127;28;20352;-78
2022/04/26 03:48:28;;;;;;;;;;;;;;;26.06;15.00;99616.94;5015997;28;19917;-78
2022/04/26 03:50:53;;;;;;;;;;;;;;;26.07;14.94;99620.47;5016162;28;19913;-78
2022/04/26 03:53:18;;;;;;;;;;;;;;;26.10;15.02;99626.13;5016677;28;19913;-78
2022/04/26 03:55:44;;;;;;;;;;;;;;;26.13;15.14;99632.91;5016314;28;19913;-78
2022/04/26 03:58:09;;;;;;;;;;;;;;;26.14;14.96;99629.06;5016487;28;20004;-78
2022/04/26 04:00:34;;;;;;;;;;;;;;;26.15;15.20;99619.75;5016653;28;19972;-78
2022/04/26 04:03:00;;;;;;;;;;;;;;;26.17;14.94;99631.19;5015033;28;19978;-77
2022/04/26 04:05:25;;;;;;;;;;;;;;;26.19;15.05;99627.00;5015892;28;20311;-77
2022/04/26 04:07:51;;;;;;;;;;;;;;;26.22;15.19;99636.53;5024649;28;19913;-77
2022/04/26 04:10:16;;;;;;;;;;;;;;;26.24;14.92;99645.25;5035780;28;20425;-79
2022/04/26 04:12:41;;;;;;;;;;;;;;;26.24;14.97;99650.72;5035306;28;19913;-78
2022/04/26 04:15:07;;;;;;;;;;;;;;;26.20;15.32;99653.28;5035305;28;20007;-78
2022/04/26 04:17:32;;;;;;;;;;;;;;;26.27;15.09;99650.13;5035116;28;19913;-79
2022/04/26 04:19:57;;;;;;;;;;;;;;;26.32;15.37;99654.63;5034973;28;19935;-78
2022/04/26 04:22:22;;;;;;;;;;;;;;;26.36;15.10;99648.25;5034924;28;19913;-78
2022/04/26 04:24:53;;;;;;;;;;;;;;;26.34;15.44;99644.22;5107073;27;19923;-75
2022/04/26 04:27:19;;;;;;;;;;;;;;;26.37;15.29;99649.88;5091340;28;20349;-72
2022/04/26 04:29:44;;;;;;;;;;;;;;;26.38;15.23;99646.00;5091297;28;19917;-73
2022/04/26 04:32:09;;;;;;;;;;;;;;;26.43;15.10;99643.13;5091311;28;20378;-73
2022/04/26 04:34:35;;;;;;;;;;;;;;;26.46;15.35;99646.34;5106869;28;19949;-74
2022/04/26 04:37:00;;;;;;;;;;;;;;;26.47;15.26;99648.00;5091350;28;20421;-72
2022/04/26 04:39:27;;;;;;;;;;;;;;;26.47;15.01;99648.78;5091251;28;19920;-72
2022/04/26 04:41:52;;;;;;;;;;;;;;;26.48;15.24;99652.38;5091083;28;19917;-74
2022/04/26 04:44:18;;;;;;;;;;;;;;;26.50;15.06;99663.81;5091091;28;19924;-75
2022/04/26 04:46:44;;;;;;;;;;;;;;;26.52;15.21;99664.31;5091205;28;19920;-71
2022/04/26 04:49:09;;;;;;;;;;;;;;;26.53;15.14;99663.19;5090943;28;20423;-74
2022/04/26 04:51:34;;;;;;;;;;;;;;;26.56;15.08;99662.53;5091024;28;20355;-73
2022/04/26 04:54:01;;;;;;;;;;;;;;;26.55;15.17;99666.44;5090906;28;19923;-73
2022/04/26 04:56:26;;;;;;;;;;;;;;;26.56;15.06;99665.28;5091541;28;19920;-72
2022/04/26 04:58:52;;;;;;;;;;;;;;;26.59;15.10;99667.41;5092063;28;19938;-73
2022/04/26 05:01:17;;;;;;;;;;;;;;;26.59;15.26;99678.38;5092115;28;19964;-72
2022/04/26 05:03:43;;;;;;;;;;;;;;;26.58;15.24;99679.50;5091436;28;19921;-74
2022/04/26 05:06:08;;;;;;;;;;;;;;;26.63;15.32;99684.91;5091665;28;19924;-71
2022/04/26 05:08:33;;;;;;;;;;;;;;;26.71;15.49;99686.84;5104720;28;20003;-71
2022/04/26 05:10:59;;;;;;;;;;;;;;;26.73;15.20;99686.56;5112190;28;19951;-73
2022/04/26 05:13:24;;;;;;;;;;;;;;;26.75;15.28;99685.13;5111357;28;20362;-73
2022/04/26 05:15:49;;;;;;;;;;;;;;;26.71;15.47;99691.53;5111139;28;20369;-73
2022/04/26 05:18:15;;;;;;;;;;;;;;;26.77;15.46;99701.25;5110969;28;19916;-73
2022/04/26 05:20:40;;;;;;;;;;;;;;;26.83;15.33;99693.72;5110879;28;20006;-72
2022/04/26 05:25:49;;;;;;;;;;;;;;;26.84;15.48;99689.84;5110973;28;19923;-72
2022/04/26 05:28:14;;;;;;;;;;;;;;;26.83;15.51;99701.94;5111297;28;19920;-73
2022/04/26 05:30:40;;;;;;;;;;;;;;;26.85;15.76;99699.69;5111181;28;19921;-72
2022/04/26 05:33:05;;;;;;;;;;;;;;;26.83;15.59;99696.47;5110431;28;20336;-72
2022/04/26 05:35:30;;;;;;;;;;;;;;;26.84;15.45;99693.41;5101549;28;19923;-74
2022/04/26 05:37:55;;;;;;;;;;;;;;;26.82;15.54;99695.66;5096877;28;20023;-73
2022/04/26 05:40:21;;;;;;;;;;;;;;;26.80;15.68;99700.63;5096370;28;19923;-73
2022/04/26 05:42:46;;;;;;;;;;;;;;;26.89;15.82;99709.72;5096213;28;19927;-72
2022/04/26 05:45:11;;;;;;;;;;;;;;;26.93;15.73;99712.63;5096683;28;19915;-72
2022/04/26 05:47:43;;;;;;;;;;;;;;;26.94;15.71;99716.97;5096628;28;20387;-75
2022/04/26 05:50:11;;;;;;;;;;;;;;;26.98;15.36;99712.50;5096974;28;19969;-73
2022/04/26 05:52:36;;;;;;;;;;;;;;;26.90;15.46;99722.28;5097038;28;19920;-73
2022/04/26 05:55:04;;;;;;;;;;;;;;;26.99;15.29;99719.59;5095742;28;19961;-72
2022/04/26 05:57:29;;;;;;;;;;;;;;;27.03;15.23;99715.13;5097272;28;19945;-71
2022/04/26 05:59:55;;;;;;;;;;;;;;;27.04;15.43;99729.63;5096834;28;20346;-74
2022/04/26 06:02:20;;;;;;;;;;;;;;;26.97;15.49;99727.34;5096908;28;19916;-73
2022/04/26 06:04:47;;;;;;;;;;;;;;;27.00;15.25;99739.63;5097306;28;19916;-75
2022/04/26 06:07:13;;;;;;;;;;;;;;;26.96;15.49;99742.97;5096187;28;19916;-75
2022/04/26 06:09:38;;;;;;;;;;;;;;;26.99;15.44;99727.81;5077579;28;19916;-72
2022/04/26 06:12:04;;;;;;;;;;;;;;;26.97;15.29;99733.66;5075939;28;19923;-72
2022/04/26 06:14:29;;;;;;;;;;;;;;;27.04;15.30;99732.38;5075737;28;19917;-72
2022/04/26 06:16:55;;;;;;;;;;;;;;;27.04;15.46;99727.69;5075473;28;20028;-74
2022/04/26 06:19:20;;;;;;;;;;;;;;;27.05;15.10;99726.56;5075774;28;19920;-72
2022/04/26 06:21:45;;;;;;;;;;;;;;;27.11;15.03;99728.06;5075720;28;19939;-74
2022/04/26 06:24:10;;;;;;;;;;;;;;;27.00;15.23;99728.66;5075546;28;19925;-74
2022/04/26 06:26:36;;;;;;;;;;;;;;;27.11;15.15;99733.56;5075708;28;20038;-72
2022/04/26 06:29:01;;;;;;;;;;;;;;;27.08;15.07;99733.34;5075400;28;20011;-72
2022/04/26 06:31:26;;;;;;;;;;;;;;;27.12;14.83;99737.91;5075363;28;19924;-73
2022/04/26 06:33:51;;;;;;;;;;;;;;;27.14;14.90;99752.09;5075688;28;19923;-73
2022/04/26 06:36:17;;;;;;;;;;;;;;;27.24;14.75;99745.56;5076201;28;20013;-76
2022/04/26 06:38:42;;;;;;;;;;;;;;;27.18;14.68;99744.06;5076568;28;20338;-75
2022/04/26 06:41:07;;;;;;;;;;;;;;;27.23;14.70;99745.88;5075421;28;19916;-72
2022/04/26 06:43:34;;;;;;;;;;;;;;;27.19;14.77;99751.19;5075341;28;19924;-75
2022/04/26 06:46:00;;;;;;;;;;;;;;;27.17;14.84;99751.47;5074990;28;19916;-73
2022/04/26 06:48:25;;;;;;;;;;;;;;;27.20;14.75;99761.03;5074780;28;19955;-73
2022/04/26 06:50:50;;;;;;;;;;;;;;;27.25;14.77;99763.66;5075126;28;19961;-72
2022/04/26 06:53:16;;;;;;;;;;;;;;;27.16;14.77;99766.34;5075281;28;19920;-73
2022/04/26 06:55:41;;;;;;;;;;;;;;;27.17;14.54;99781.66;5075285;28;19917;-75
2022/04/26 06:58:06;;;;;;;;;;;;;;;27.23;14.73;99787.00;5074888;28;19996;-78
2022/04/26 07:00:32;;;;;;;;;;;;;;;27.27;14.40;99796.22;5073356;28;19924;-75
2022/04/26 07:02:57;;;;;;;;;;;;;;;27.26;14.55;99800.91;5074839;28;19917;-77
2022/04/26 07:05:23;;;;;;;;;;;;;;;27.21;14.56;99802.97;5075123;28;19992;-73
2022/04/26 07:07:49;;;;;;;;;;;;;;;27.13;14.84;99813.59;5078535;28;19920;-73
2022/04/26 07:10:14;;;;;;;;;;;;;;;27.23;14.87;99823.47;5095259;28;19922;-74
2022/04/26 07:12:40;;;;;;;;;;;;;;;27.22;14.81;99821.06;5095378;28;20270;-73
2022/04/26 07:15:05;;;;;;;;;;;;;;;27.24;14.74;99821.56;5093273;28;20389;-73
2022/04/26 07:17:30;;;;;;;;;;;;;;;27.22;14.58;99829.28;5095455;28;19916;-75
2022/04/26 07:19:59;;;;;;;;;;;;;;;27.21;14.60;99842.19;5094998;28;19942;-74
2022/04/26 07:22:24;;;;;;;;;;;;;;;27.30;14.67;99845.84;5094512;28;19916;-74
2022/04/26 07:24:50;;;;;;;;;;;;;;;27.31;14.52;99852.94;5094340;28;19920;-74
2022/04/26 07:27:16;;;;;;;;;;;;;;;27.25;14.60;99848.69;5094251;28;20362;-73
2022/04/26 07:29:43;;;;;;;;;;;;;;;27.28;14.51;99858.22;5095061;28;20037;-74
2022/04/26 07:32:09;;;;;;;;;;;;;;;27.29;14.57;99857.91;5094810;28;20314;-72
2022/04/26 07:34:34;;;;;;;;;;;;;;;27.26;14.54;99868.69;5094010;28;20022;-72
2022/04/26 07:37:00;;;;;;;;;;;;;;;27.24;14.63;99868.19;5094366;28;20378;-72
2022/04/26 07:39:25;;;;;;;;;;;;;;;27.23;14.52;99872.03;5094434;28;19991;-75
2022/04/26 07:41:51;;;;;;;;;;;;;;;27.20;14.62;99870.75;5094389;28;19923;-73
2022/04/26 07:44:16;;;;;;;;;;;;;;;27.23;14.71;99877.53;5093311;28;19920;-76
2022/04/26 07:46:45;;;;;;;;;;;;;;;27.29;14.68;99881.81;5094609;28;19916;-75
2022/04/26 07:49:10;;;;;;;;;;;;;;;27.24;14.93;99887.41;5094918;28;19916;-74
2022/04/26 07:51:36;;;;;;;;;;;;;;;27.23;14.79;99894.00;5092627;28;19916;-75
2022/04/26 07:54:01;;;;;;;;;;;;;;;27.30;14.78;99899.88;5093587;28;19916;-75
2022/04/26 07:56:31;;;;;;;;;;;;;;;27.29;14.55;99898.28;5093110;28;19927;-73
2022/04/26 07:58:58;;;;;;;;;;;;;;;27.29;14.38;99903.75;5092485;28;19927;-73
2022/04/26 08:01:23;;;;;;;;;;;;;;;27.24;14.89;99898.38;5094698;28;19977;-74
2022/04/26 08:03:49;;;;;;;;;;;;;;;27.29;14.94;99909.25;5092868;28;19916;-72
2022/04/26 08:06:14;;;;;;;;;;;;;;;27.27;14.72;99917.75;5093691;28;19927;-74
2022/04/26 08:08:39;;;;;;;;;;;;;;;27.25;14.44;99910.94;5084485;28;20325;-73
2022/04/26 08:11:11;;;;;;;;;;;;;;;27.25;14.60;99919.16;5072503;28;19932;-75
2022/04/26 08:13:37;;;;;;;;;;;;;;;27.28;14.17;99929.56;5073518;28;19920;-72
2022/04/26 08:16:02;;;;;;;;;;;;;;;27.30;14.22;99927.31;5073592;28;20315;-74
2022/04/26 08:18:27;;;;;;;;;;;;;;;27.28;14.00;99926.81;5074236;28;20434;-74
2022/04/26 08:20:53;;;;;;;;;;;;;;;27.24;14.10;99929.34;5073147;28;19924;-73
2022/04/26 08:23:18;;;;;;;;;;;;;;;27.27;14.00;99933.38;5072727;28;19932;-73
2022/04/26 08:28:28;;;;;;;;;;;;;;;27.28;13.64;99943.28;5073400;28;19927;-73
2022/04/26 08:30:55;;;;;;;;;;;;;;;27.28;13.54;99946.03;5073435;28;20342;-73
2022/04/26 08:33:20;;;;;;;;;;;;;;;27.29;13.36;99942.16;5073389;28;19986;-72
2022/04/26 08:35:45;;;;;;;;;;;;;;;27.27;13.59;99949.84;5072905;28;20371;-72
2022/04/26 08:38:10;;;;;;;;;;;;;;;27.27;13.50;99944.34;5073050;28;20020;-74
2022/04/26 08:40:36;;;;;;;;;;;;;;;27.25;13.43;99952.09;5073062;28;19925;-75
2022/04/26 08:43:02;;;;;;;;;;;;;;;27.29;13.39;99951.19;5073264;28;19932;-74
2022/04/26 08:45:27;;;;;;;;;;;;;;;27.32;13.26;99950.59;5073259;28;20366;-73
2022/04/26 08:53:21;;;;;;;;;;;;;;;27.28;13.40;99968.75;5073517;28;19923;-73
2022/04/26 08:55:50;;;;;;;;;;;;;;;27.30;13.00;99965.72;5073570;28;20226;-72
2022/04/26 08:58:15;;;;;;;;;;;;;;;27.30;13.10;99968.47;5074004;28;19917;-72
2022/04/26 09:00:41;;;;;;;;;;;;;;;27.31;13.04;99973.63;5073183;28;19920;-75
2022/04/26 09:03:11;;;;;;;;;;;;;;;27.31;12.95;99968.16;5073246;28;20005;-73
2022/04/26 09:05:37;;;;;;;;;;;;;;;27.35;12.88;99971.09;5073313;28;19967;-72
2022/04/26 09:08:20;;;;;;;;;;;;;;;27.35;12.89;99969.19;5075620;28;19939;-74
2022/04/26 09:10:46;;;;;;;;;;;;;;;27.32;12.88;99975.28;5096044;28;20010;-75
2022/04/26 09:13:15;;;;;;;;;;;;;;;27.35;12.77;99971.91;5098885;28;19944;-76
2022/04/26 09:15:41;;;;;;;;;;;;;;;27.38;12.82;99981.44;5098194;28;19968;-73
2022/04/26 09:18:22;;;;;;;;;;;;;;;27.40;12.61;99981.94;5097466;28;20011;-75
2022/04/26 09:20:48;;;;;;;;;;;;;;;27.42;12.52;99979.69;5097869;28;19985;-74
2022/04/26 09:23:19;;;;;;;;;;;;;;;27.47;12.39;99987.81;5096435;28;19931;-74
2022/04/26 09:25:45;;;;;;;;;;;;;;;27.48;12.57;99986.69;5096948;28;19928;-73
2022/04/26 09:28:20;;;;;;;;;;;;;;;27.50;12.33;99986.38;5097436;28;19999;-72
2022/04/26 09:30:46;;;;;;;;;;;;;;;27.42;12.13;99982.44;5096739;28;20001;-75
2022/04/26 09:33:11;;;;;;;;;;;;;;;27.51;12.19;99986.06;5096602;28;19959;-74
2022/04/26 09:35:37;;;;;;;;;;;;;;;27.54;12.13;100003.84;5095520;28;19920;-73
2022/04/26 09:38:03;;;;;;;;;;;;;;;27.42;12.18;99995.34;5096328;28;19916;-75
2022/04/26 09:40:28;;;;;;;;;;;;;;;27.53;12.11;99997.56;5095440;28;19927;-75
2022/04/26 09:42:54;;;;;;;;;;;;;;;27.58;12.21;99999.38;5096378;28;20006;-74
2022/04/26 09:45:19;;;;;;;;;;;;;;;27.57;11.96;100002.44;5096299;28;19920;-72
2022/04/26 09:47:45;;;;;;;;;;;;;;;27.63;11.85;100003.91;5096311;28;19916;-74
2022/04/26 09:50:11;;;;;;;;;;;;;;;27.64;11.95;100019.25;5096184;28;19923;-71
2022/04/26 09:52:36;;;;;;;;;;;;;;;27.59;12.08;100011.16;5096357;28;20083;-72
2022/04/26 09:55:03;;;;;;;;;;;;;;;27.62;12.09;100013.28;5096400;28;19979;-74
2022/04/26 09:57:29;;;;;;;;;;;;;;;27.65;11.88;100034.63;5096219;28;20011;-72
2022/04/26 09:59:54;;;;;;;;;;;;;;;27.68;11.97;100025.75;5095192;28;19978;-72
2022/04/26 10:02:19;;;;;;;;;;;;;;;27.70;11.96;100024.31;5095957;28;20358;-74
2022/04/26 10:04:46;;;;;;;;;;;;;;;27.74;12.10;100035.50;5095961;28;20013;-72
2022/04/26 10:07:12;;;;;;;;;;;;;;;27.80;11.96;100031.47;5096175;28;19916;-72
2022/04/26 10:09:37;;;;;;;;;;;;;;;27.78;11.95;100035.69;5081939;28;19920;-73
2022/04/26 10:12:03;;;;;;;;;;;;;;;27.74;11.88;100032.75;5075753;28;20017;-72
2022/04/26 10:14:28;;;;;;;;;;;;;;;27.74;11.82;100035.50;5074450;28;20374;-72
2022/04/26 10:16:53;;;;;;;;;;;;;;;27.75;11.88;100037.09;5074554;28;19917;-72
2022/04/26 10:19:19;;;;;;;;;;;;;;;27.74;11.71;100043.72;5074730;28;19974;-72
2022/04/26 10:21:46;;;;;;;;;;;;;;;27.69;11.75;100039.16;5074720;28;20347;-73
2022/04/26 10:24:12;;;;;;;;;;;;;;;27.69;11.65;100043.84;5075726;28;19960;-73
2022/04/26 10:26:37;;;;;;;;;;;;;;;27.68;11.40;100047.69;5075840;28;20333;-73
2022/04/26 10:29:09;;;;;;;;;;;;;;;27.65;11.44;100045.59;5075284;28;19948;-73
2022/04/26 10:31:38;;;;;;;;;;;;;;;27.66;11.50;100041.72;5075299;28;19917;-73
2022/04/26 10:34:20;;;;;;;;;;;;;;;27.64;11.52;100057.69;5075531;28;19940;-74
2022/04/26 10:36:46;;;;;;;;;;;;;;;27.66;11.52;100060.94;5076453;28;19917;-76
2022/04/26 10:39:12;;;;;;;;;;;;;;;27.74;11.25;100062.94;5076845;28;19916;-77
2022/04/26 10:41:55;;;;;;;;;;;;;;;27.74;11.21;100071.19;5077406;28;20338;-75
2022/04/26 10:44:24;;;;;;;;;;;;;;;27.71;11.40;100080.03;5074396;28;20019;-74
2022/04/26 10:46:53;;;;;;;;;;;;;;;27.68;11.39;100076.00;5075368;28;19916;-75
2022/04/26 10:49:24;;;;;;;;;;;;;;;27.71;11.21;100080.03;5075391;28;20362;-74
2022/04/26 10:51:51;;;;;;;;;;;;;;;27.72;11.15;100082.47;5076002;28;19923;-74
2022/04/26 10:54:37;;;;;;;;;;;;;;;27.70;10.97;100089.41;5075923;28;20286;-74
2022/04/26 10:57:02;;;;;;;;;;;;;;;27.75;10.93;100083.78;5074732;28;19921;-76
2022/04/26 10:59:27;;;;;;;;;;;;;;;27.74;10.88;100095.91;5075276;28;20274;-75
2022/04/26 11:01:53;;;;;;;;;;;;;;;27.70;10.90;100083.91;5075644;28;19917;-76
2022/04/26 11:04:18;;;;;;;;;;;;;;;27.73;10.81;100092.34;5075453;28;19916;-76
2022/04/26 11:06:44;;;;;;;;;;;;;;;27.73;10.89;100088.75;5075811;28;19924;-75
2022/04/26 11:09:09;;;;;;;;;;;;;;;27.67;10.94;100093.56;5075737;28;20335;-75
2022/04/26 11:11:53;;;;;;;;;;;;;;;27.72;10.84;100103.63;5075429;28;20362;-77
2022/04/26 11:14:20;;;;;;;;;;;;;;;27.73;10.94;100097.00;5076520;28;19916;-75
2022/04/26 11:16:58;;;;;;;;;;;;;;;27.71;10.96;100097.31;5075554;28;19917;-77
2022/04/26 11:19:30;;;;;;;;;;;;;;;27.74;10.83;100106.88;5074596;28;19923;-74
2022/04/26 11:21:56;;;;;;;;;;;;;;;27.78;10.74;100096.88;5074841;28;19916;-74
2022/04/26 11:29:52;;;;;;;;;;;;;;;27.73;10.63;100130.78;5074337;28;20324;-74
2022/04/26 11:32:30;;;;;;;;;;;;;;;27.71;10.57;100124.75;5073803;28;19916;-73
2022/04/26 11:34:56;;;;;;;;;;;;;;;27.74;10.51;100128.84;5074149;28;19932;-73
2022/04/26 11:37:21;;;;;;;;;;;;;;;27.77;10.53;100133.72;5074801;28;19917;-74
2022/04/26 11:39:47;;;;;;;;;;;;;;;27.77;10.40;100139.22;5074407;28;19927;-73
2022/04/26 11:42:12;;;;;;;;;;;;;;;27.80;10.20;100144.06;5074033;28;19916;-73
2022/04/26 11:44:54;;;;;;;;;;;;;;;27.81;10.32;100150.38;5073728;28;20283;-73
2022/04/26 11:47:20;;;;;;;;;;;;;;;27.82;10.12;100138.25;5074830;28;19916;-74
2022/04/26 11:49:45;;;;;;;;;;;;;;;27.78;10.14;100151.78;5072809;28;20385;-73
2022/04/26 11:52:10;;;;;;;;;;;;;;;27.73;10.25;100151.91;5073618;28;20054;-73
2022/04/26 11:54:39;;;;;;;;;;;;;;;27.70;10.15;100161.59;5073836;28;19924;-76
2022/04/26 11:57:04;;;;;;;;;;;;;;;27.71;10.22;100154.16;5074348;28;19924;-75
2022/04/26 11:59:29;;;;;;;;;;;;;;;27.66;10.15;100168.00;5074243;28;20290;-75
2022/04/26 12:01:54;;;;;;;;;;;;;;;27.72;10.16;100164.03;5073926;28;19924;-74
2022/04/26 12:04:20;;;;;;;;;;;;;;;27.68;10.07;100168.50;5074565;28;19917;-75
2022/04/26 12:06:45;;;;;;;;;;;;;;;27.71;9.94;100156.91;5074094;28;20274;-74
2022/04/26 12:09:14;;;;;;;;;;;;;;;27.66;9.90;100170.75;5080776;28;20015;-75
2022/04/26 12:11:41;;;;;;;;;;;;;;;27.70;9.97;100182.75;5094492;28;19922;-75
2022/04/26 12:14:07;;;;;;;;;;;;;;;27.71;10.01;100185.16;5094086;28;20376;-75
2022/04/26 12:16:35;;;;;;;;;;;;;;;27.63;10.02;100188.66;5094333;28;19916;-73
2022/04/26 12:19:01;;;;;;;;;;;;;;;27.64;10.22;100189.44;5094953;28;19916;-74
2022/04/26 12:21:26;;;;;;;;;;;;;;;27.63;10.13;100182.31;5094479;28;19943;-73
2022/04/26 12:24:13;;;;;;;;;;;;;;;27.71;10.02;100189.84;5091937;28;19924;-73
2022/04/26 12:26:59;;;;;;;;;;;;;;;27.69;10.02;100192.91;5093621;28;19954;-73
2022/04/26 12:29:44;;;;;;;;;;;;;;;27.64;9.84;100197.69;5051326;28;20343;-73
2022/04/26 12:32:10;;;;;;;;;;;;;;;27.63;9.78;100193.31;5051142;28;19917;-74
2022/04/26 12:34:36;;;;;;;;;;;;;;;27.68;9.77;100190.44;5051338;28;19939;-74
2022/04/26 12:37:08;;;;;;;;;;;;;;;27.66;9.68;100187.22;5051261;28;20351;-73
2022/04/26 12:39:45;;;;;;;;;;;;;;;27.65;9.65;100199.31;5035121;28;19917;-74
2022/04/26 12:42:10;;;;;;;;;;;;;;;27.62;9.57;100198.00;5051436;28;19956;-74
2022/04/26 12:44:37;;;;;;;;;;;;;;;27.64;9.60;100194.94;5051670;28;20505;-73
2022/04/26 12:52:45;;;;;;;;;;;;;;;27.65;9.58;100207.56;5055444;28;20066;-75
2022/04/26 12:55:10;;;;;;;;;;;;;;;27.68;9.65;100209.66;5055096;28;19917;-74
2022/04/26 12:57:48;;;;;;;;;;;;;;;27.65;9.40;100204.81;5055178;28;20325;-74
2022/04/26 13:00:13;;;;;;;;;;;;;;;27.66;9.34;100199.00;5055445;28;19936;-73
2022/04/26 13:02:38;;;;;;;;;;;;;;;27.65;9.20;100200.13;5055066;28;19928;-75
2022/04/26 13:05:04;;;;;;;;;;;;;;;27.62;9.19;100197.19;5055205;28;19917;-74
2022/04/26 13:07:29;;;;;;;;;;;;;;;27.64;9.12;100200.44;5094223;28;19923;-74
2022/04/26 13:09:54;;;;;;;;;;;;;;;27.61;9.04;100201.03;5086739;28;19923;-75
2022/04/26 13:12:20;;;;;;;;;;;;;;;27.59;9.07;100200.53;5077310;28;20366;-75
2022/04/26 13:14:45;;;;;;;;;;;;;;;27.61;8.96;100206.53;5076868;28;19917;-75
2022/04/26 13:17:10;;;;;;;;;;;;;;;27.57;8.96;100211.81;5077210;28;19916;-74
2022/04/26 13:19:35;;;;;;;;;;;;;;;27.57;9.05;100219.25;5076917;28;19938;-74
2022/04/26 13:22:01;;;;;;;;;;;;;;;27.56;8.91;100210.19;5076880;28;19921;-74
2022/04/26 13:24:28;;;;;;;;;;;;;;;27.57;8.84;100220.06;5076342;28;19928;-74
2022/04/26 13:26:54;;;;;;;;;;;;;;;27.51;8.71;100216.59;5077031;28;19954;-73
2022/04/26 13:29:19;;;;;;;;;;;;;;;27.56;8.82;100225.84;5076685;28;20476;-73
2022/04/26 13:31:44;;;;;;;;;;;;;;;27.57;8.59;100220.06;5075746;28;19916;-74
2022/04/26 13:34:10;;;;;;;;;;;;;;;27.55;8.64;100225.03;5076516;28;20355;-73
2022/04/26 13:36:35;;;;;;;;;;;;;;;27.60;8.92;100221.38;5076559;28;19923;-74
2022/04/26 13:39:02;;;;;;;;;;;;;;;27.59;8.65;100228.78;5076798;28;20122;-73
2022/04/26 13:41:27;;;;;;;;;;;;;;;27.56;8.52;100228.59;5076793;28;19921;-73
2022/04/26 13:43:53;;;;;;;;;;;;;;;27.57;8.69;100238.47;5076566;28;20343;-72
2022/04/26 13:46:18;;;;;;;;;;;;;;;27.59;8.56;100241.72;5076627;28;20011;-72
2022/04/26 13:48:44;;;;;;;;;;;;;;;27.54;8.57;100246.19;5076179;28;19920;-72
2022/04/26 13:51:09;;;;;;;;;;;;;;;27.54;8.53;100239.88;5076537;28;19999;-73
2022/04/26 13:53:34;;;;;;;;;;;;;;;27.51;8.38;100241.31;5076009;28;19939;-73
2022/04/26 13:56:00;;;;;;;;;;;;;;;27.56;8.28;100242.31;5075914;28;19963;-73
2022/04/26 13:58:26;;;;;;;;;;;;;;;27.53;8.48;100241.81;5076494;28;19958;-73
2022/04/26 14:00:51;;;;;;;;;;;;;;;27.53;8.40;100233.59;5076466;28;20355;-73
2022/04/26 14:03:16;;;;;;;;;;;;;;;27.51;8.34;100240.47;5075943;28;19921;-73
2022/04/26 14:05:41;;;;;;;;;;;;;;;27.50;8.20;100228.69;5076199;28;19917;-75
2022/04/26 14:08:07;;;;;;;;;;;;;;;27.51;8.36;100237.72;5076263;28;20370;-75
2022/04/26 14:10:32;;;;;;;;;;;;;;;27.48;8.32;100235.63;5090894;28;20308;-75
2022/04/26 14:12:59;;;;;;;;;;;;;;;27.50;8.40;100244.34;5096296;28;19924;-75
2022/04/26 14:23:36;;;;;;;;;;;;;;;27.43;8.31;100261.22;5075490;28;19986;-74
2022/04/26 14:26:03;;;;;;;;;;;;;;;27.44;8.41;100262.88;5075499;28;20379;-73
2022/04/26 14:28:28;;;;;;;;;;;;;;;27.43;8.33;100261.22;5076362;28;19916;-73
2022/04/26 14:30:53;;;;;;;;;;;;;;;27.43;8.30;100263.16;5075535;28;20015;-73
2022/04/26 14:33:19;;;;;;;;;;;;;;;27.43;8.22;100272.19;5075406;28;19924;-73
2022/04/26 14:35:45;;;;;;;;;;;;;;;27.44;8.34;100271.09;5091152;28;19962;-73
2022/04/26 14:38:10;;;;;;;;;;;;;;;27.46;8.24;100277.09;5075670;28;19917;-74
2022/04/26 14:40:35;;;;;;;;;;;;;;;27.46;8.23;100271.59;5075600;28;20354;-73
2022/04/26 14:43:01;;;;;;;;;;;;;;;27.42;8.23;100275.25;5075552;28;19917;-74
2022/04/26 14:45:32;;;;;;;;;;;;;;;27.40;8.22;100272.81;5075304;28;20291;-74
2022/04/26 14:47:58;;;;;;;;;;;;;;;27.40;8.34;100286.53;5075555;28;19920;-74
2022/04/26 14:50:23;;;;;;;;;;;;;;;27.43;8.42;100283.19;5075212;28;20409;-74
2022/04/26 14:52:48;;;;;;;;;;;;;;;27.43;8.39;100283.19;5075345;28;19917;-75
2022/04/26 14:55:13;;;;;;;;;;;;;;;27.44;8.59;100290.31;5074980;28;20369;-74
2022/04/26 14:57:39;;;;;;;;;;;;;;;27.43;8.53;100294.16;5075230;28;20369;-74
2022/04/26 15:00:05;;;;;;;;;;;;;;;27.43;8.61;100299.66;5075141;28;19916;-74
2022/04/26 15:02:38;;;;;;;;;;;;;;;27.41;8.48;100301.06;5074892;28;20367;-74
2022/04/26 15:05:04;;;;;;;;;;;;;;;27.44;8.47;100306.78;5075885;28;19917;-74
2022/04/26 15:09:42;;;;;;;;;;;;;;;27.44;8.66;100306.78;5074231;28;20378;-73
2022/04/26 15:10:14;;;;;;;;;;;;;;;27.46;8.46;100303.72;5085784;28;20282;-73
2022/04/26 15:18:08;;;;;;;;;;;;;;;27.43;8.43;100316.09;5094902;28;20035;-73
2022/04/26 15:20:34;;;;;;;;;;;;;;;27.43;8.66;100315.31;5094752;28;20385;-73
2022/04/26 15:23:01;;;;;;;;;;;;;;;27.41;8.63;100315.59;5094628;28;19924;-74
2022/04/26 15:25:26;;;;;;;;;;;;;;;27.45;8.68;100332.28;5094754;28;20359;-73
2022/04/26 15:27:51;;;;;;;;;;;;;;;27.40;8.54;100329.63;5094972;28;19988;-73
2022/04/26 15:30:16;;;;;;;;;;;;;;;27.43;8.52;100331.78;5094964;28;19927;-74
2022/04/26 15:32:42;;;;;;;;;;;;;;;27.41;8.61;100334.00;5094488;28;19916;-74
2022/04/26 15:35:09;;;;;;;;;;;;;;;27.41;8.53;100334.81;5094434;28;19923;-73
2022/04/26 15:37:35;;;;;;;;;;;;;;;27.36;8.61;100345.88;5094858;28;19916;-73
2022/04/26 15:40:00;;;;;;;;;;;;;;;27.32;8.67;100344.84;5094418;28;19916;-74
2022/04/26 15:42:25;;;;;;;;;;;;;;;27.29;8.51;100348.19;5094606;28;20002;-74
2022/04/26 15:44:51;;;;;;;;;;;;;;;27.23;8.63;100350.16;5094263;28;19939;-73
2022/04/26 15:47:17;;;;;;;;;;;;;;;27.17;8.51;100341.22;5094621;28;20093;-73
2022/04/26 15:49:43;;;;;;;;;;;;;;;27.14;8.64;100350.03;5094549;28;20377;-75
2022/04/26 15:52:08;;;;;;;;;;;;;;;27.09;8.62;100347.38;5093201;28;20320;-74
2022/04/26 15:54:35;;;;;;;;;;;;;;;27.06;8.60;100353.50;5094568;28;19970;-74
2022/04/26 15:57:00;;;;;;;;;;;;;;;27.01;8.65;100355.47;5094464;28;19943;-74
2022/04/26 15:59:25;;;;;;;;;;;;;;;26.96;8.80;100350.91;5093096;28;19967;-73
2022/04/26 16:01:51;;;;;;;;;;;;;;;26.95;8.69;100362.97;5094042;28;19969;-75
2022/04/26 16:04:16;;;;;;;;;;;;;;;26.93;8.82;100359.72;5094293;28;19931;-75
2022/04/26 16:06:41;;;;;;;;;;;;;;;26.90;8.77;100358.38;5093991;28;19958;-75
2022/04/26 16:22:47;;;;;;;;;;;;;;;26.74;8.62;100371.50;5076873;28;19927;-75
2022/04/26 16:25:12;;;;;;;;;;;;;;;26.75;8.99;100377.81;5093614;28;19916;-74
2022/04/26 16:27:38;;;;;;;;;;;;;;;26.74;8.90;100377.00;5093991;28;19916;-74
2022/04/26 16:30:03;;;;;;;;;;;;;;;26.76;8.92;100383.00;5093991;28;19916;-74
2022/04/26 16:32:29;;;;;;;;;;;;;;;26.73;8.78;100386.34;5093606;28;20007;-75
2022/04/26 16:34:56;;;;;;;;;;;;;;;26.71;8.95;100391.28;5093661;28;19924;-74
2022/04/26 16:37:22;;;;;;;;;;;;;;;26.70;8.93;100397.91;5094220;28;19920;-76
2022/04/26 16:39:47;;;;;;;;;;;;;;;26.66;8.94;100396.84;5093848;28;20271;-74
2022/04/26 16:42:12;;;;;;;;;;;;;;;26.67;8.82;100393.00;5093869;28;19924;-74
2022/04/26 16:44:37;;;;;;;;;;;;;;;26.66;8.82;100401.50;5093765;28;20265;-74
2022/04/26 16:47:03;;;;;;;;;;;;;;;26.65;9.02;100408.09;5093530;28;19916;-73
2022/04/26 16:49:30;;;;;;;;;;;;;;;26.63;8.70;100407.56;5093557;28;19916;-74
2022/04/26 16:51:55;;;;;;;;;;;;;;;26.64;9.01;100412.78;5093791;28;20003;-75
2022/04/26 16:54:20;;;;;;;;;;;;;;;26.59;8.76;100410.06;5093446;28;19971;-73
2022/04/26 16:56:46;;;;;;;;;;;;;;;26.60;8.76;100417.19;5093473;28;20011;-73
2022/04/26 16:59:13;;;;;;;;;;;;;;;26.55;8.96;100417.25;5093819;28;19923;-73
2022/04/26 17:01:39;;;;;;;;;;;;;;;26.56;8.90;100418.88;5093735;28;19948;-75
2022/04/26 17:04:10;;;;;;;;;;;;;;;26.55;8.88;100425.47;5093297;28;19967;-74
2022/04/26 17:06:35;;;;;;;;;;;;;;;26.53;8.75;100427.69;5093360;28;19954;-74